createdAt,value
2018-09-13T00:01:40.595Z,101911.00
2018-09-13T00:04:10.218Z,101895.00
2018-09-13T00:06:39.809Z,101900.00
2018-09-13T00:09:10.131Z,101898.00
2018-09-13T00:11:39.800Z,101901.00
2018-09-13T00:14:09.444Z,101897.00
2018-09-13T00:16:39.178Z,101895.00
2018-09-13T00:19:08.822Z,101894.00
2018-09-13T00:21:38.524Z,101880.00
2018-09-13T00:24:08.261Z,101888.00
2018-09-13T00:26:37.872Z,101884.00
2018-09-13T00:29:07.580Z,101881.00
2018-09-13T00:31:37.154Z,101883.00
2018-09-13T00:34:06.784Z,101882.00
2018-09-13T00:36:36.359Z,101879.00
2018-09-13T00:39:07.968Z,101879.00
2018-09-13T00:41:38.290Z,101876.00
2018-09-13T00:44:08.264Z,101889.00
2018-09-13T00:46:37.861Z,101870.00
2018-09-13T00:49:07.712Z,101859.00
2018-09-13T00:51:37.347Z,101842.00
2018-09-13T00:54:07.039Z,101846.00
2018-09-13T00:56:36.698Z,101848.00
2018-09-13T00:59:06.604Z,101848.00
2018-09-13T01:01:36.163Z,101846.00
2018-09-13T01:04:06.018Z,101832.00
2018-09-13T01:06:35.820Z,101831.00
2018-09-13T01:09:08.476Z,101819.00
2018-09-13T01:11:38.375Z,101820.00
2018-09-13T01:14:07.976Z,101823.00
2018-09-13T01:16:37.750Z,101822.00
2018-09-13T01:19:07.384Z,101826.00
2018-09-13T01:21:37.190Z,101818.00
2018-09-13T01:24:06.866Z,101823.00
2018-09-13T01:26:36.570Z,101823.00
2018-09-13T01:29:06.186Z,101819.00
2018-09-13T01:31:35.838Z,101825.00
2018-09-13T01:34:05.516Z,101839.00
2018-09-13T01:36:35.269Z,101839.00
2018-09-13T01:39:06.864Z,101835.00
2018-09-13T01:41:36.609Z,101824.00
2018-09-13T01:44:06.473Z,101821.00
2018-09-13T01:46:36.413Z,101810.00
2018-09-13T01:49:06.158Z,101801.00
2018-09-13T01:51:35.770Z,101794.00
2018-09-13T01:54:05.502Z,101806.00
2018-09-13T01:56:35.194Z,101810.00
2018-09-13T01:59:04.782Z,101800.00
2018-09-13T02:01:34.450Z,101792.00
2018-09-13T02:04:04.243Z,101796.00
2018-09-13T02:06:33.917Z,101796.00
2018-09-13T02:09:03.568Z,101807.00
2018-09-13T02:11:33.240Z,101803.00
2018-09-13T02:14:02.981Z,101796.00
2018-09-13T02:16:32.769Z,101798.00
2018-09-13T02:19:02.488Z,101801.00
2018-09-13T02:21:32.169Z,101793.00
2018-09-13T02:24:01.911Z,101798.00
2018-09-13T02:26:31.519Z,101804.00
2018-09-13T02:29:01.252Z,101806.00
2018-09-13T02:31:30.970Z,101802.00
2018-09-13T02:34:00.569Z,101807.00
2018-09-13T02:36:30.272Z,101820.00
2018-09-13T02:38:59.916Z,101813.00
2018-09-13T02:41:29.642Z,101819.00
2018-09-13T02:43:59.288Z,101819.00
2018-09-13T02:46:28.904Z,101824.00
2018-09-13T02:48:58.553Z,101823.00
2018-09-13T02:51:28.205Z,101813.00
2018-09-13T02:53:57.873Z,101816.00
2018-09-13T02:56:27.697Z,101814.00
2018-09-13T02:58:57.361Z,101815.00
2018-09-13T03:01:27.114Z,101818.00
2018-09-13T03:03:56.825Z,101819.00
2018-09-13T03:06:26.459Z,101826.00
2018-09-13T03:08:56.273Z,101825.00
2018-09-13T03:11:25.943Z,101822.00
2018-09-13T03:13:55.643Z,101820.00
2018-09-13T03:16:25.298Z,101816.00
2018-09-13T03:18:54.987Z,101814.00
2018-09-13T03:21:24.598Z,101812.00
2018-09-13T03:23:54.342Z,101811.00
2018-09-13T03:26:24.062Z,101812.00
2018-09-13T03:28:53.766Z,101802.00
2018-09-13T03:31:23.431Z,101806.00
2018-09-13T03:33:53.102Z,101809.00
2018-09-13T03:36:22.751Z,101806.00
2018-09-13T03:38:53.314Z,101807.00
2018-09-13T03:41:23.016Z,101800.00
2018-09-13T03:43:52.690Z,101799.00
2018-09-13T03:46:22.349Z,101808.00
2018-09-13T03:48:51.987Z,101804.00
2018-09-13T03:51:21.748Z,101808.00
2018-09-13T03:53:51.414Z,101809.00
2018-09-13T03:56:21.000Z,101802.00
2018-09-13T03:58:51.016Z,101804.00
2018-09-13T04:01:20.606Z,101794.00
2018-09-13T04:03:50.292Z,101800.00
2018-09-13T04:06:19.999Z,101803.00
2018-09-13T04:08:49.651Z,101792.00
2018-09-13T04:11:19.372Z,101803.00
2018-09-13T04:13:49.146Z,101805.00
2018-09-13T04:16:18.874Z,101808.00
2018-09-13T04:18:49.016Z,101807.00
2018-09-13T04:21:18.741Z,101804.00
2018-09-13T04:23:48.465Z,101805.00
2018-09-13T04:26:18.011Z,101810.00
2018-09-13T04:28:47.611Z,101809.00
2018-09-13T04:31:17.304Z,101800.00
2018-09-13T04:33:46.991Z,101802.00
2018-09-13T04:36:16.585Z,101804.00
2018-09-13T04:38:46.189Z,101796.00
2018-09-13T04:41:15.826Z,101798.00
2018-09-13T04:43:45.638Z,101786.00
2018-09-13T04:46:15.280Z,101788.00
2018-09-13T04:48:45.080Z,101787.00
2018-09-13T04:51:14.709Z,101779.00
2018-09-13T04:53:44.274Z,101784.00
2018-09-13T04:56:13.926Z,101778.00
2018-09-13T04:58:43.729Z,101786.00
2018-09-13T05:01:13.411Z,101789.00
2018-09-13T05:03:43.225Z,101785.00
2018-09-13T05:06:12.831Z,101793.00
2018-09-13T05:08:42.490Z,101784.00
2018-09-13T05:11:12.140Z,101791.00
2018-09-13T05:13:41.786Z,101788.00
2018-09-13T05:16:11.442Z,101797.00
2018-09-13T05:18:41.050Z,101794.00
2018-09-13T05:21:10.746Z,101793.00
2018-09-13T05:23:40.404Z,101801.00
2018-09-13T05:26:10.457Z,101799.00
2018-09-13T05:28:40.094Z,101807.00
2018-09-13T05:31:09.805Z,101794.00
2018-09-13T05:33:39.466Z,101800.00
2018-09-13T05:36:09.073Z,101811.00
2018-09-13T05:38:38.812Z,101802.00
2018-09-13T05:41:08.705Z,101809.00
2018-09-13T05:43:38.545Z,101802.00
2018-09-13T05:46:08.193Z,101797.00
2018-09-13T05:48:37.932Z,101796.00
2018-09-13T05:51:07.712Z,101797.00
2018-09-13T05:53:37.280Z,101804.00
2018-09-13T05:56:06.898Z,101803.00
2018-09-13T05:58:36.654Z,101809.00
2018-09-13T06:01:06.323Z,101802.00
2018-09-13T06:03:35.894Z,101801.00
2018-09-13T06:06:05.558Z,101797.00
2018-09-13T06:08:35.214Z,101795.00
2018-09-13T06:11:04.916Z,101802.00
2018-09-13T06:13:34.684Z,101804.00
2018-09-13T06:16:04.356Z,101797.00
2018-09-13T06:18:34.123Z,101804.00
2018-09-13T06:21:03.860Z,101798.00
2018-09-13T06:23:34.252Z,101811.00
2018-09-13T06:26:03.880Z,101813.00
2018-09-13T06:28:33.559Z,101818.00
2018-09-13T06:31:03.325Z,101816.00
2018-09-13T06:33:33.102Z,101806.00
2018-09-13T06:36:02.972Z,101813.00
2018-09-13T06:38:32.546Z,101811.00
2018-09-13T06:41:02.194Z,101821.00
2018-09-13T06:43:31.921Z,101819.00
2018-09-13T06:46:01.745Z,101812.00
2018-09-13T06:48:31.467Z,101808.00
2018-09-13T06:51:01.146Z,101805.00
2018-09-13T06:53:31.836Z,101806.00
2018-09-13T06:56:01.468Z,101812.00
2018-09-13T06:58:31.176Z,101818.00
2018-09-13T07:01:00.831Z,101811.00
2018-09-13T07:03:30.507Z,101808.00
2018-09-13T07:06:00.267Z,101813.00
2018-09-13T07:08:30.054Z,101812.00
2018-09-13T07:10:59.867Z,101809.00
2018-09-13T07:13:29.757Z,101815.00
2018-09-13T07:15:59.487Z,101817.00
2018-09-13T07:18:29.189Z,101825.00
2018-09-13T07:20:59.013Z,101826.00
2018-09-13T07:23:28.865Z,101825.00
2018-09-13T07:25:58.499Z,101819.00
2018-09-13T07:28:28.192Z,101822.00
2018-09-13T07:30:58.152Z,101826.00
2018-09-13T07:33:27.874Z,101825.00
2018-09-13T07:35:57.559Z,101832.00
2018-09-13T07:38:27.304Z,101828.00
2018-09-13T07:40:57.045Z,101828.00
2018-09-13T07:43:26.890Z,101830.00
2018-09-13T07:45:56.702Z,101833.00
2018-09-13T07:48:26.304Z,101832.00
2018-09-13T07:50:56.096Z,101835.00
2018-09-13T07:53:25.752Z,101830.00
2018-09-13T07:55:55.477Z,101839.00
2018-09-13T07:58:25.150Z,101834.00
2018-09-13T08:00:54.802Z,101833.00
2018-09-13T08:03:24.432Z,101844.00
2018-09-13T08:05:54.031Z,101840.00
2018-09-13T08:08:23.693Z,101841.00
2018-09-13T08:10:53.517Z,101836.00
2018-09-13T08:13:23.147Z,101839.00
2018-09-13T08:15:52.789Z,101839.00
2018-09-13T08:18:22.486Z,101848.00
2018-09-13T08:20:52.216Z,101854.00
2018-09-13T08:23:22.003Z,101850.00
2018-09-13T08:25:51.762Z,101856.00
2018-09-13T08:28:21.536Z,101855.00
2018-09-13T08:30:51.353Z,101858.00
2018-09-13T08:33:21.060Z,101861.00
2018-09-13T08:35:50.780Z,101861.00
2018-09-13T08:38:21.209Z,101863.00
2018-09-13T08:40:50.818Z,101874.00
2018-09-13T08:43:20.358Z,101875.00
2018-09-13T08:45:50.061Z,101869.00
2018-09-13T08:48:19.726Z,101870.00
2018-09-13T08:50:49.364Z,101878.00
2018-09-13T08:53:18.940Z,101880.00
2018-09-13T08:55:48.506Z,101877.00
2018-09-13T08:58:18.219Z,101882.00
2018-09-13T09:00:47.983Z,101885.00
2018-09-13T09:03:17.562Z,101885.00
2018-09-13T09:05:47.353Z,101884.00
2018-09-13T09:08:17.090Z,101889.00
2018-09-13T09:10:46.922Z,101880.00
2018-09-13T09:13:16.699Z,101881.00
2018-09-13T09:15:46.371Z,101871.00
2018-09-13T09:18:15.925Z,101863.00
2018-09-13T09:20:45.691Z,101864.00
2018-09-13T09:23:15.344Z,101865.00
2018-09-13T09:25:44.945Z,101863.00
2018-09-13T09:28:14.518Z,101873.00
2018-09-13T09:30:44.126Z,101871.00
2018-09-13T09:33:13.739Z,101875.00
2018-09-13T09:35:43.335Z,101872.00
2018-09-13T09:38:12.973Z,101873.00
2018-09-13T09:40:42.783Z,101875.00
2018-09-13T09:43:12.379Z,101873.00
2018-09-13T09:45:42.115Z,101878.00
2018-09-13T09:48:11.690Z,101877.00
2018-09-13T09:50:41.327Z,101870.00
2018-09-13T09:53:11.240Z,101869.00
2018-09-13T09:55:41.058Z,101864.00
2018-09-13T09:58:10.802Z,101872.00
2018-09-13T10:00:45.576Z,101876.00
2018-09-13T10:03:15.297Z,101863.00
2018-09-13T10:05:44.969Z,101869.00
2018-09-13T10:08:14.719Z,101863.00
2018-09-13T10:10:44.554Z,101859.00
2018-09-13T10:13:14.270Z,101859.00
2018-09-13T10:15:49.131Z,101858.00
2018-09-13T10:18:24.366Z,101856.00
2018-09-13T10:20:59.416Z,101856.00
2018-09-13T10:23:34.457Z,101851.00
2018-09-13T10:26:09.230Z,101845.00
2018-09-13T10:28:44.061Z,101849.00
2018-09-13T10:31:18.896Z,101845.00
2018-09-13T10:33:53.914Z,101838.00
2018-09-13T10:36:28.807Z,101846.00
2018-09-13T10:39:03.696Z,101843.00
2018-09-13T10:41:38.470Z,101840.00
2018-09-13T10:44:13.225Z,101836.00
2018-09-13T10:46:42.916Z,101833.00
2018-09-13T10:49:17.712Z,101835.00
2018-09-13T10:51:52.601Z,101830.00
2018-09-13T10:54:30.350Z,101830.00
2018-09-13T10:57:04.034Z,101833.00
2018-09-13T10:59:33.791Z,101833.00
2018-09-13T11:02:03.510Z,101836.00
2018-09-13T11:04:33.309Z,101836.00
2018-09-13T11:07:03.036Z,101826.00
2018-09-13T11:09:32.710Z,101825.00
2018-09-13T11:12:02.407Z,101820.00
2018-09-13T11:14:37.204Z,101819.00
2018-09-13T11:17:06.989Z,101819.00
2018-09-13T11:19:36.756Z,101821.00
2018-09-13T11:22:06.499Z,101818.00
2018-09-13T11:24:36.207Z,101817.00
2018-09-13T11:27:06.003Z,101811.00
2018-09-13T11:29:35.814Z,101814.00
2018-09-13T11:32:05.578Z,101817.00
2018-09-13T11:34:35.350Z,101815.00
2018-09-13T11:37:05.206Z,101820.00
2018-09-13T11:39:34.957Z,101815.00
2018-09-13T11:42:04.747Z,101821.00
2018-09-13T11:44:34.451Z,101818.00
2018-09-13T11:47:04.189Z,101804.00
2018-09-13T11:49:34.671Z,101806.00
2018-09-13T11:52:04.299Z,101808.00
2018-09-13T11:54:34.092Z,101803.00
2018-09-13T11:57:03.797Z,101803.00
2018-09-13T11:59:33.469Z,101808.00
2018-09-13T12:02:03.324Z,101810.00
2018-09-13T12:04:32.923Z,101817.00
2018-09-13T12:07:02.631Z,101810.00
2018-09-13T12:09:32.283Z,101810.00
2018-09-13T12:12:01.846Z,101806.00
2018-09-13T12:14:31.523Z,101810.00
2018-09-13T12:17:01.170Z,101801.00
2018-09-13T12:19:30.980Z,101803.00
2018-09-13T12:22:00.671Z,101806.00
2018-09-13T12:24:30.315Z,101800.00
2018-09-13T12:27:00.078Z,101803.00
2018-09-13T12:29:29.814Z,101799.00
2018-09-13T12:31:59.498Z,101801.00
2018-09-13T12:34:29.198Z,101803.00
2018-09-13T12:36:58.954Z,101794.00
2018-09-13T12:39:28.588Z,101795.00
2018-09-13T12:41:58.220Z,101791.00
2018-09-13T12:44:27.982Z,101800.00
2018-09-13T12:46:57.830Z,101795.00
2018-09-13T12:49:27.493Z,101795.00
2018-09-13T12:51:57.334Z,101789.00
2018-09-13T12:54:27.754Z,101782.00
2018-09-13T12:56:57.443Z,101789.00
2018-09-13T12:59:27.049Z,101778.00
2018-09-13T13:01:56.889Z,101770.00
2018-09-13T13:04:26.531Z,101772.00
2018-09-13T13:06:56.318Z,101775.00
2018-09-13T13:09:25.983Z,101770.00
2018-09-13T13:11:55.689Z,101775.00
2018-09-13T13:14:25.478Z,101774.00
2018-09-13T13:16:55.299Z,101773.00
2018-09-13T13:19:25.077Z,101774.00
2018-09-13T13:21:54.710Z,101769.00
2018-09-13T13:24:24.453Z,101763.00
2018-09-13T13:26:54.403Z,101771.00
2018-09-13T13:29:24.187Z,101771.00
2018-09-13T13:31:53.921Z,101770.00
2018-09-13T13:34:23.764Z,101760.00
2018-09-13T13:36:53.560Z,101760.00
2018-09-13T13:39:23.236Z,101760.00
2018-09-13T13:41:52.964Z,101760.00
2018-09-13T13:44:22.764Z,101759.00
2018-09-13T13:46:52.677Z,101762.00
2018-09-13T13:49:22.421Z,101767.00
2018-09-13T13:51:51.998Z,101757.00
2018-09-13T13:54:21.782Z,101759.00
2018-09-13T13:56:51.466Z,101761.00
2018-09-13T13:59:21.357Z,101768.00
2018-09-13T14:01:51.126Z,101761.00
2018-09-13T14:04:20.815Z,101755.00
2018-09-13T14:06:50.577Z,101751.00
2018-09-13T14:09:20.401Z,101754.00
2018-09-13T14:11:50.062Z,101749.00
2018-09-13T14:14:19.733Z,101747.00
2018-09-13T14:16:49.396Z,101747.00
2018-09-13T14:19:19.034Z,101733.00
2018-09-13T14:21:48.715Z,101752.00
2018-09-13T14:24:18.414Z,101744.00
2018-09-13T14:26:48.091Z,101743.00
2018-09-13T14:29:17.701Z,101741.00
2018-09-13T14:31:47.659Z,101746.00
2018-09-13T14:34:17.491Z,101738.00
2018-09-13T14:36:47.138Z,101741.00
2018-09-13T14:39:16.993Z,101740.00
2018-09-13T14:41:46.745Z,101745.00
2018-09-13T14:44:16.471Z,101741.00
2018-09-13T14:46:46.258Z,101736.00
2018-09-13T14:49:15.947Z,101739.00
2018-09-13T14:51:45.737Z,101741.00
2018-09-13T14:54:15.983Z,101736.00
2018-09-13T14:56:45.949Z,101736.00
2018-09-13T14:59:15.851Z,101736.00
2018-09-13T15:01:45.544Z,101726.00
2018-09-13T15:04:15.281Z,101715.00
2018-09-13T15:06:45.088Z,101721.00
2018-09-13T15:09:14.736Z,101725.00
2018-09-13T15:11:44.400Z,101719.00
2018-09-13T15:14:14.079Z,101718.00
2018-09-13T15:16:43.744Z,101706.00
2018-09-13T15:19:13.384Z,101712.00
2018-09-13T15:21:43.089Z,101717.00
2018-09-13T15:24:12.910Z,101716.00
2018-09-13T15:26:42.494Z,101715.00
2018-09-13T15:29:12.142Z,101708.00
2018-09-13T15:31:42.196Z,101704.00
2018-09-13T15:34:11.991Z,101712.00
2018-09-13T15:36:41.827Z,101711.00
2018-09-13T15:39:13.005Z,101710.00
2018-09-13T15:41:42.703Z,101703.00
2018-09-13T15:44:12.516Z,101712.00
2018-09-13T15:46:42.190Z,101714.00
2018-09-13T15:49:11.973Z,101716.00
2018-09-13T15:51:41.705Z,101716.00
2018-09-13T15:54:11.413Z,101713.00
2018-09-13T15:56:41.117Z,101720.00
2018-09-13T15:59:11.014Z,101719.00
2018-09-13T16:01:40.789Z,101722.00
2018-09-13T16:04:10.657Z,101717.00
2018-09-13T16:06:40.270Z,101716.00
2018-09-13T16:09:10.552Z,101719.00
2018-09-13T16:11:40.353Z,101709.00
2018-09-13T16:14:10.685Z,101721.00
2018-09-13T16:16:40.259Z,101721.00
2018-09-13T16:19:09.924Z,101712.00
2018-09-13T16:21:39.609Z,101715.00
2018-09-13T16:24:09.487Z,101723.00
2018-09-13T16:26:39.367Z,101715.00
2018-09-13T16:29:09.151Z,101722.00
2018-09-13T16:31:39.519Z,101707.00
2018-09-13T16:34:09.262Z,101723.00
2018-09-13T16:36:48.345Z,101725.00
2018-09-13T16:39:27.547Z,101721.00
2018-09-13T16:42:02.582Z,101722.00
2018-09-13T16:44:38.385Z,101730.00
2018-09-13T16:47:25.191Z,101726.00
2018-09-13T16:49:55.525Z,101727.00
2018-09-13T16:52:27.134Z,101732.00
2018-09-13T16:54:56.928Z,101740.00
2018-09-13T16:57:26.867Z,101744.00
2018-09-13T16:59:56.949Z,101746.00
2018-09-13T17:02:26.883Z,101742.00
2018-09-13T17:04:56.551Z,101740.00
2018-09-13T17:07:26.469Z,101740.00
2018-09-13T17:09:56.299Z,101747.00
2018-09-13T17:12:25.930Z,101752.00
2018-09-13T17:14:56.055Z,101741.00
2018-09-13T17:17:25.815Z,101749.00
2018-09-13T17:19:55.652Z,101741.00
2018-09-13T17:22:25.362Z,101744.00
2018-09-13T17:24:55.068Z,101748.00
2018-09-13T17:27:24.839Z,101753.00
2018-09-13T17:29:54.802Z,101749.00
2018-09-13T17:32:24.529Z,101752.00
2018-09-13T17:34:54.197Z,101752.00
2018-09-13T17:37:23.862Z,101750.00
2018-09-13T17:39:53.532Z,101747.00
2018-09-13T17:42:23.244Z,101750.00
2018-09-13T17:44:53.053Z,101746.00
2018-09-13T17:50:01.867Z,101749.00
2018-09-13T17:52:31.743Z,101753.00
2018-09-13T17:55:01.472Z,101759.00
2018-09-13T17:57:31.266Z,101750.00
2018-09-13T18:00:00.928Z,101752.00
2018-09-13T18:02:30.536Z,101748.00
2018-09-13T18:05:00.207Z,101757.00
2018-09-13T18:07:29.770Z,101760.00
2018-09-13T18:09:59.449Z,101765.00
2018-09-13T18:12:29.351Z,101765.00
2018-09-13T18:14:59.336Z,101753.00
2018-09-13T18:17:30.131Z,101757.00
2018-09-13T18:19:59.783Z,101757.00
2018-09-13T18:22:29.450Z,101758.00
2018-09-13T18:24:59.183Z,101763.00
2018-09-13T18:27:28.807Z,101772.00
2018-09-13T18:29:58.578Z,101771.00
2018-09-13T18:32:28.271Z,101769.00
2018-09-13T18:35:02.757Z,101781.00
2018-09-13T18:37:32.479Z,101787.00
2018-09-13T18:40:02.688Z,101783.00
2018-09-13T18:42:32.508Z,101793.00
2018-09-13T18:45:02.835Z,101796.00
2018-09-13T18:47:32.615Z,101792.00
2018-09-13T18:50:02.420Z,101802.00
2018-09-13T18:52:32.232Z,101799.00
2018-09-13T18:55:02.091Z,101796.00
2018-09-13T18:57:32.170Z,101801.00
2018-09-13T19:00:01.820Z,101807.00
2018-09-13T19:02:31.533Z,101806.00
2018-09-13T19:05:01.128Z,101812.00
2018-09-13T19:07:30.819Z,101811.00
2018-09-13T19:10:00.483Z,101812.00
2018-09-13T19:12:30.433Z,101814.00
2018-09-13T19:15:00.111Z,101814.00
2018-09-13T19:17:29.816Z,101818.00
2018-09-13T19:19:59.467Z,101821.00
2018-09-13T19:22:29.182Z,101821.00
2018-09-13T19:24:58.906Z,101826.00
2018-09-13T19:27:28.718Z,101824.00
2018-09-13T19:29:58.350Z,101829.00
2018-09-13T19:32:27.963Z,101827.00
2018-09-13T19:34:57.775Z,101826.00
2018-09-13T19:37:27.346Z,101829.00
2018-09-13T19:39:56.999Z,101832.00
2018-09-13T19:42:26.761Z,101828.00
2018-09-13T19:44:56.390Z,101828.00
2018-09-13T19:47:26.054Z,101831.00
2018-09-13T19:49:55.850Z,101837.00
2018-09-13T19:52:25.607Z,101836.00
2018-09-13T19:54:55.288Z,101839.00
2018-09-13T19:57:25.040Z,101830.00
2018-09-13T19:59:54.970Z,101838.00
2018-09-13T20:02:24.888Z,101840.00
2018-09-13T20:04:54.677Z,101843.00
2018-09-13T20:07:24.346Z,101847.00
2018-09-13T20:09:54.180Z,101842.00
2018-09-13T20:12:23.955Z,101841.00
2018-09-13T20:14:54.107Z,101846.00
2018-09-13T20:17:23.812Z,101845.00
2018-09-13T20:19:53.652Z,101850.00
2018-09-13T20:22:23.421Z,101851.00
2018-09-13T20:24:53.491Z,101849.00
2018-09-13T20:27:23.290Z,101846.00
2018-09-13T20:29:53.016Z,101849.00
2018-09-13T20:32:22.760Z,101853.00
2018-09-13T20:34:52.744Z,101855.00
2018-09-13T20:37:22.363Z,101853.00
2018-09-13T20:39:52.003Z,101855.00
2018-09-13T20:42:21.724Z,101854.00
2018-09-13T20:44:52.218Z,101851.00
2018-09-13T20:47:21.944Z,101848.00
2018-09-13T20:49:51.820Z,101845.00
2018-09-13T20:52:21.402Z,101851.00
2018-09-13T20:54:51.117Z,101853.00
2018-09-13T20:57:21.005Z,101851.00
2018-09-13T20:59:51.148Z,101855.00
2018-09-13T21:02:21.568Z,101859.00
2018-09-13T21:04:51.380Z,101856.00
2018-09-13T21:07:27.641Z,101851.00
2018-09-13T21:09:57.592Z,101858.00
2018-09-13T21:12:27.421Z,101857.00
2018-09-13T21:14:57.274Z,101858.00
2018-09-13T21:17:26.891Z,101846.00
2018-09-13T21:19:56.482Z,101842.00
2018-09-13T21:22:26.233Z,101851.00
2018-09-13T21:24:56.233Z,101848.00
2018-09-13T21:27:26.004Z,101842.00
2018-09-13T21:29:55.859Z,101845.00
2018-09-13T21:32:25.919Z,101844.00
2018-09-13T21:34:55.704Z,101854.00
2018-09-13T21:37:25.410Z,101851.00
2018-09-13T21:39:55.066Z,101847.00
2018-09-13T21:42:24.790Z,101855.00
2018-09-13T21:44:54.560Z,101860.00
2018-09-13T21:47:24.262Z,101863.00
2018-09-13T21:49:53.960Z,101862.00
2018-09-13T21:52:23.742Z,101860.00
2018-09-13T21:54:53.726Z,101874.00
2018-09-13T21:57:23.580Z,101870.00
2018-09-13T21:59:53.286Z,101870.00
2018-09-13T22:02:23.008Z,101862.00
2018-09-13T22:07:34.501Z,101878.00
2018-09-13T22:10:04.329Z,101875.00
2018-09-13T22:12:34.201Z,101875.00
2018-09-13T22:15:03.827Z,101875.00
2018-09-13T22:17:33.604Z,101875.00
2018-09-13T22:20:03.461Z,101873.00
2018-09-13T22:22:33.184Z,101877.00
2018-09-13T22:25:02.869Z,101879.00
2018-09-13T22:27:33.123Z,101883.00
2018-09-13T22:30:02.792Z,101881.00
2018-09-13T22:32:32.427Z,101876.00
2018-09-13T22:35:02.063Z,101883.00
2018-09-13T22:37:31.716Z,101883.00
2018-09-13T22:40:01.321Z,101885.00
2018-09-13T22:42:31.002Z,101886.00
2018-09-13T22:45:01.378Z,101892.00
2018-09-13T22:47:31.818Z,101891.00
2018-09-13T22:50:01.493Z,101889.00
2018-09-13T22:52:31.237Z,101889.00
2018-09-13T22:55:00.897Z,101895.00
2018-09-13T22:57:30.527Z,101892.00
2018-09-13T23:00:00.171Z,101890.00
2018-09-13T23:02:29.882Z,101892.00
2018-09-13T23:04:59.569Z,101895.00
2018-09-13T23:07:29.250Z,101892.00
2018-09-13T23:09:58.914Z,101893.00
2018-09-13T23:12:28.674Z,101895.00
2018-09-13T23:15:02.371Z,101892.00
2018-09-13T23:17:32.028Z,101894.00
2018-09-13T23:20:02.626Z,101899.00
2018-09-13T23:22:32.220Z,101894.00
2018-09-13T23:25:01.926Z,101901.00
2018-09-13T23:27:31.606Z,101900.00
2018-09-13T23:30:01.237Z,101893.00
2018-09-13T23:32:30.897Z,101896.00
2018-09-13T23:35:00.534Z,101894.00
2018-09-13T23:37:30.372Z,101887.00
2018-09-13T23:40:00.189Z,101886.00
2018-09-13T23:42:29.656Z,101887.00
2018-09-13T23:44:59.268Z,101885.00
2018-09-13T23:47:28.898Z,101892.00
2018-09-13T23:49:58.585Z,101887.00
2018-09-13T23:52:28.209Z,101892.00
2018-09-13T23:54:57.804Z,101887.00
2018-09-13T23:57:27.429Z,101887.00
2018-09-13T23:59:57.244Z,101893.00
